Terminal Aerodrome Forecast
Issued by NWS

Home | Current Version | Previous Version | Text Only | Print | Product List | Glossary On
Versions: 1 2 3 4 5 6 7 8 9 10 11 12 13 14 15 16 17 18
000
FTAK31 PANC 261124
TAFADL
TAF
PADL 261124Z 2612/2712 12004KT P6SM VCSH BKN035
      TEMPO 2613/2617 3SM BR BKN010
     FM262000 13007KT P6SM SCT035 BKN050
     FM270200 19007KT P6SM SCT050 BKN080=

USA.gov is the U.S. government's official web portal to all federal, state and local government web resources and services.